Time;durP1;ratioP1;P1;durP2;ratioP2;P2;SDS_P1;SDS_P2;PMS_P1;PMS_P2;Temp;Humidity;BMP_temperature;BMP_pressure;BME280_temperature;BME280_humidity;BME280_pressure;Samples;Min_cycle;Max_cycle;Signal;HPM_P1;HPM_P2
2023/06/18 00:01:56;;;;;;;7.53;4.90;;;25.60;52.90;;;;;;5043123;28;20402;-56
2023/06/18 00:04:22;;;;;;;5.00;4.50;;;25.60;53.00;;;;;;5042985;28;20025;-56
2023/06/18 00:06:47;;;;;;;6.65;4.60;;;25.50;53.10;;;;;;5044744;28;20132;-55
2023/06/18 00:09:13;;;;;;;5.05;4.55;;;25.40;53.00;;;;;;5043293;28;20087;-56
2023/06/18 00:11:38;;;;;;;7.63;4.80;;;25.40;53.10;;;;;;5044680;28;20032;-55
2023/06/18 00:14:04;;;;;;;5.50;4.53;;;25.40;53.20;;;;;;5043116;28;20474;-56
2023/06/18 00:16:29;;;;;;;5.60;4.45;;;25.40;53.30;;;;;;5043255;28;20047;-56
2023/06/18 00:18:55;;;;;;;7.82;4.82;;;25.40;53.40;;;;;;5042550;28;20029;-56
2023/06/18 00:21:21;;;;;;;4.57;4.18;;;25.30;53.40;;;;;;5042804;28;20091;-56
2023/06/18 00:23:46;;;;;;;6.18;4.93;;;25.30;53.50;;;;;;5043891;28;20029;-56
2023/06/18 00:26:12;;;;;;;6.57;4.28;;;25.30;53.50;;;;;;5042007;28;20056;-54
2023/06/18 00:28:37;;;;;;;6.72;4.63;;;25.20;53.50;;;;;;5025049;28;20063;-54
2023/06/18 00:31:03;;;;;;;13.50;5.32;;;25.20;53.50;;;;;;5043473;28;20036;-54
2023/06/18 00:33:32;;;;;;;5.10;4.57;;;25.20;53.60;;;;;;5042082;28;20025;-53
2023/06/18 00:35:59;;;;;;;7.07;4.93;;;25.20;53.70;;;;;;5043993;28;20025;-54
2023/06/18 00:38:28;;;;;;;4.53;4.13;;;25.10;53.70;;;;;;5044482;28;20040;-53
2023/06/18 00:40:54;;;;;;;6.15;4.95;;;25.10;53.80;;;;;;5027097;28;20044;-52
2023/06/18 00:43:19;;;;;;;7.13;5.50;;;25.00;53.90;;;;;;5026523;28;20115;-53
2023/06/18 00:45:46;;;;;;;5.93;4.65;;;25.00;53.90;;;;;;5044556;28;20021;-53
2023/06/18 00:48:12;;;;;;;6.63;4.68;;;25.00;53.90;;;;;;5044318;28;20048;-53
2023/06/18 00:50:40;;;;;;;6.43;5.38;;;25.00;54.10;;;;;;5042922;28;20040;-53
2023/06/18 00:53:07;;;;;;;5.32;4.63;;;24.90;54.10;;;;;;5043031;28;20040;-53
2023/06/18 00:55:36;;;;;;;6.63;4.53;;;24.90;54.30;;;;;;5046058;28;20032;-53
2023/06/18 00:58:03;;;;;;;6.60;5.00;;;24.80;54.30;;;;;;5048492;28;20032;-53
2023/06/18 01:00:34;;;;;;;5.93;4.60;;;24.90;54.40;;;;;;5046919;28;20036;-52
2023/06/18 01:03:02;;;;;;;7.75;5.18;;;24.80;54.40;;;;;;5047820;28;20041;-53
2023/06/18 01:05:31;;;;;;;4.82;4.30;;;24.80;54.50;;;;;;5046814;28;20093;-53
2023/06/18 01:07:59;;;;;;;5.40;4.43;;;24.80;54.50;;;;;;5047572;28;20034;-53
2023/06/18 01:10:29;;;;;;;5.50;5.00;;;24.70;54.60;;;;;;5047412;28;20032;-52
2023/06/18 01:12:57;;;;;;;9.55;4.63;;;24.70;54.70;;;;;;5048564;28;20033;-53
2023/06/18 01:15:26;;;;;;;5.25;4.75;;;24.60;54.70;;;;;;5047202;28;20042;-53
2023/06/18 01:17:53;;;;;;;7.30;4.88;;;24.60;54.90;;;;;;5046829;28;20045;-53
2023/06/18 01:20:19;;;;;;;6.35;5.10;;;24.60;55.00;;;;;;5046902;28;20033;-53
2023/06/18 01:23:02;;;;;;;5.30;4.80;;;24.60;55.00;;;;;;5047255;28;20120;-53
2023/06/18 01:25:32;;;;;;;6.72;4.78;;;24.60;55.00;;;;;;5047425;28;20381;-52
2023/06/18 01:27:58;;;;;;;6.72;4.90;;;24.50;55.00;;;;;;5047102;28;20037;-53
2023/06/18 01:30:23;;;;;;;5.20;4.70;;;24.50;55.10;;;;;;5046683;28;20040;-53
2023/06/18 01:32:49;;;;;;;5.65;5.03;;;24.50;55.30;;;;;;5046980;28;20025;-54
2023/06/18 01:35:15;;;;;;;9.80;5.03;;;24.40;55.30;;;;;;5048126;28;20045;-54
2023/06/18 01:38:06;;;;;;;7.13;4.90;;;24.40;55.40;;;;;;5046496;28;20034;-53
2023/06/18 01:41:01;;;;;;;5.25;4.13;;;24.40;55.50;;;;;;5046811;28;20045;-53
2023/06/18 01:43:30;;;;;;;8.50;4.90;;;24.30;55.60;;;;;;5046374;28;20041;-53
2023/06/18 01:46:00;;;;;;;5.68;4.57;;;24.30;55.70;;;;;;5046458;28;20038;-53
2023/06/18 01:48:27;;;;;;;6.10;5.43;;;24.30;55.70;;;;;;5046331;28;20106;-53
2023/06/18 01:50:53;;;;;;;6.25;4.60;;;24.20;55.70;;;;;;5045867;28;20053;-53
2023/06/18 01:53:21;;;;;;;5.40;4.90;;;24.20;55.80;;;;;;5046150;28;20109;-53
2023/06/18 01:55:47;;;;;;;6.57;5.03;;;24.20;55.90;;;;;;5046301;28;20025;-53
2023/06/18 01:58:13;;;;;;;5.32;4.85;;;24.20;56.00;;;;;;5046117;28;20044;-53
2023/06/18 02:00:39;;;;;;;5.53;4.65;;;24.20;56.10;;;;;;5045990;28;20030;-53
2023/06/18 02:03:04;;;;;;;5.85;4.97;;;24.10;56.10;;;;;;5045893;28;20041;-53
2023/06/18 02:05:30;;;;;;;5.20;4.70;;;24.10;56.10;;;;;;5046646;28;20091;-53
2023/06/18 02:07:55;;;;;;;5.45;4.90;;;24.10;56.20;;;;;;5046665;28;20038;-53
2023/06/18 02:10:21;;;;;;;5.28;4.78;;;24.00;56.30;;;;;;5046975;28;20021;-53
2023/06/18 02:12:47;;;;;;;5.25;4.75;;;24.00;56.40;;;;;;5045785;28;20127;-53
2023/06/18 02:15:13;;;;;;;5.25;4.70;;;24.00;56.40;;;;;;5045641;28;20254;-54
2023/06/18 02:17:38;;;;;;;5.50;4.78;;;24.00;56.50;;;;;;5045498;28;20037;-53
2023/06/18 02:20:06;;;;;;;7.10;5.43;;;23.90;56.50;;;;;;5045577;28;20116;-53
2023/06/18 02:22:32;;;;;;;6.25;5.22;;;23.90;56.60;;;;;;5047051;28;20052;-53
2023/06/18 02:24:57;;;;;;;5.60;4.97;;;23.80;57.30;;;;;;5047138;28;20025;-53
2023/06/18 02:27:23;;;;;;;7.97;5.28;;;23.80;56.90;;;;;;5045528;28;20034;-53
2023/06/18 02:29:48;;;;;;;7.00;5.43;;;23.80;56.80;;;;;;5046899;28;20049;-53
2023/06/18 02:32:14;;;;;;;5.72;4.88;;;23.80;56.80;;;;;;5045518;28;20132;-53
2023/06/18 02:34:40;;;;;;;6.32;5.03;;;23.80;56.90;;;;;;5045404;28;20037;-53
2023/06/18 02:37:06;;;;;;;5.60;4.97;;;23.70;56.90;;;;;;5028647;28;20021;-53
2023/06/18 02:39:32;;;;;;;5.72;4.95;;;23.70;57.00;;;;;;5045261;28;20120;-53
2023/06/18 02:41:58;;;;;;;7.75;4.57;;;23.70;57.10;;;;;;5045164;28;20036;-53
2023/06/18 02:44:24;;;;;;;8.93;5.38;;;23.70;57.20;;;;;;5045185;28;20030;-53
2023/06/18 02:46:50;;;;;;;5.60;5.10;;;23.60;57.20;;;;;;5044998;28;20104;-53
2023/06/18 02:49:15;;;;;;;6.40;4.50;;;23.60;57.20;;;;;;5046602;28;20091;-53
2023/06/18 02:51:41;;;;;;;7.50;4.60;;;23.60;57.30;;;;;;5045287;28;20027;-53
2023/06/18 02:54:07;;;;;;;6.93;4.82;;;23.50;57.30;;;;;;5046249;28;20041;-53
2023/06/18 02:56:32;;;;;;;9.38;4.78;;;23.50;57.40;;;;;;5045069;28;20036;-53
2023/06/18 02:58:58;;;;;;;5.97;4.90;;;23.60;57.50;;;;;;5046558;28;20057;-53
2023/06/18 03:01:24;;;;;;;6.18;4.82;;;23.50;57.50;;;;;;5046332;28;20021;-53
2023/06/18 03:03:50;;;;;;;7.53;5.20;;;23.50;57.60;;;;;;5044800;28;20040;-53
2023/06/18 03:06:16;;;;;;;7.47;4.97;;;23.50;57.60;;;;;;5044646;28;20030;-53
2023/06/18 03:08:42;;;;;;;5.38;4.88;;;23.40;57.60;;;;;;5044784;28;20044;-53
2023/06/18 03:11:07;;;;;;;5.50;5.00;;;23.40;57.60;;;;;;5044560;28;20021;-53
2023/06/18 03:13:33;;;;;;;5.05;4.55;;;23.40;57.80;;;;;;5045958;28;20025;-53
2023/06/18 03:15:58;;;;;;;11.65;5.07;;;23.40;57.90;;;;;;5028159;28;20021;-53
2023/06/18 03:18:24;;;;;;;6.30;5.50;;;23.30;57.90;;;;;;5045566;28;20030;-53
2023/06/18 03:20:50;;;;;;;5.38;4.85;;;23.30;58.00;;;;;;5044623;28;20021;-53
2023/06/18 03:23:15;;;;;;;5.40;4.90;;;23.30;58.00;;;;;;5044356;28;20030;-53
2023/06/18 03:25:41;;;;;;;7.45;5.15;;;23.30;58.10;;;;;;5044667;28;20021;-53
2023/06/18 03:28:07;;;;;;;5.65;5.05;;;23.20;58.10;;;;;;5044369;28;20037;-53
2023/06/18 03:30:32;;;;;;;5.30;4.80;;;23.20;58.30;;;;;;5044366;28;20026;-53
2023/06/18 03:33:02;;;;;;;8.85;5.25;;;23.20;58.30;;;;;;5044408;28;20030;-54
2023/06/18 03:35:28;;;;;;;5.18;4.68;;;23.20;58.40;;;;;;5044321;28;20081;-53
2023/06/18 03:37:54;;;;;;;7.10;4.97;;;23.20;58.50;;;;;;5044318;28;20108;-53
2023/06/18 03:40:19;;;;;;;4.10;3.78;;;23.10;58.50;;;;;;5044205;28;20089;-53
2023/06/18 03:42:45;;;;;;;5.40;4.90;;;23.10;58.60;;;;;;5044066;28;20474;-53
2023/06/18 03:45:10;;;;;;;9.65;4.72;;;23.10;58.60;;;;;;5045575;28;20052;-53
2023/06/18 03:47:36;;;;;;;5.68;5.00;;;23.10;58.70;;;;;;5060521;28;20107;-53
2023/06/18 03:50:02;;;;;;;6.38;4.78;;;23.00;58.80;;;;;;5027428;28;20104;-53
2023/06/18 03:52:27;;;;;;;6.32;4.78;;;23.00;58.80;;;;;;5043764;28;20036;-54
2023/06/18 03:54:53;;;;;;;6.68;5.03;;;23.00;58.90;;;;;;5045278;28;20065;-53
2023/06/18 03:57:18;;;;;;;7.97;5.22;;;22.90;58.90;;;;;;5043763;28;20034;-53
2023/06/18 03:59:44;;;;;;;6.07;5.20;;;23.00;59.00;;;;;;5043713;28;20033;-53
2023/06/18 04:02:10;;;;;;;5.07;4.60;;;22.90;59.00;;;;;;5045168;28;20029;-53
2023/06/18 04:04:35;;;;;;;7.90;4.93;;;22.90;59.00;;;;;;5043612;28;20087;-53
2023/06/18 04:07:01;;;;;;;7.50;5.13;;;22.80;59.10;;;;;;5043303;28;20026;-53
2023/06/18 04:09:27;;;;;;;6.45;5.07;;;22.90;59.20;;;;;;5043524;28;20457;-53
2023/06/18 04:11:54;;;;;;;7.90;4.70;;;22.80;59.30;;;;;;5043576;28;20128;-53
2023/06/18 04:14:19;;;;;;;7.85;5.28;;;22.80;59.40;;;;;;5044224;28;20029;-53
2023/06/18 04:16:45;;;;;;;5.68;5.03;;;22.80;59.40;;;;;;5043505;28;20085;-53
2023/06/18 04:19:10;;;;;;;5.05;4.55;;;22.80;59.40;;;;;;5043312;28;20111;-53
2023/06/18 04:21:37;;;;;;;5.55;4.90;;;22.80;59.40;;;;;;5043617;28;20085;-53
2023/06/18 04:24:03;;;;;;;5.32;4.60;;;22.80;59.50;;;;;;5043320;28;20026;-53
2023/06/18 04:26:28;;;;;;;8.73;5.10;;;22.70;59.50;;;;;;5045015;28;20041;-53
2023/06/18 04:28:54;;;;;;;7.70;5.07;;;22.80;59.60;;;;;;5044023;28;20071;-53
2023/06/18 04:31:19;;;;;;;6.28;5.03;;;22.70;60.30;;;;;;5044741;28;20036;-53
2023/06/18 04:33:45;;;;;;;5.28;4.78;;;22.80;59.80;;;;;;5026777;28;20029;-53
2023/06/18 04:36:11;;;;;;;5.40;4.88;;;22.70;59.70;;;;;;5043419;28;20025;-53
2023/06/18 04:38:37;;;;;;;5.85;5.25;;;22.80;59.80;;;;;;5044674;28;20034;-53
2023/06/18 04:41:02;;;;;;;6.30;4.90;;;22.70;60.40;;;;;;5044626;28;20048;-53
2023/06/18 04:43:28;;;;;;;6.05;4.78;;;22.70;59.80;;;;;;5043191;28;20470;-53
2023/06/18 04:45:54;;;;;;;7.03;4.78;;;22.70;59.90;;;;;;5043170;28;20026;-53
2023/06/18 04:48:19;;;;;;;6.22;4.70;;;22.60;59.90;;;;;;5043401;28;20095;-53
2023/06/18 04:50:45;;;;;;;5.18;4.60;;;22.60;59.90;;;;;;5044686;28;20528;-53
2023/06/18 04:53:10;;;;;;;5.68;4.70;;;22.60;60.00;;;;;;5043134;28;20087;-53
2023/06/18 04:55:37;;;;;;;7.03;5.38;;;22.60;60.00;;;;;;5044538;28;20032;-53
2023/06/18 04:58:04;;;;;;;7.53;4.78;;;22.60;60.10;;;;;;5043000;28;20038;-53
2023/06/18 05:00:30;;;;;;;8.25;5.68;;;22.60;60.10;;;;;;5042961;28;20029;-53
2023/06/18 05:02:57;;;;;;;6.28;4.75;;;22.60;60.20;;;;;;5043156;28;20116;-53
2023/06/18 05:05:23;;;;;;;5.78;5.00;;;22.60;60.30;;;;;;5043147;28;20050;-53
2023/06/18 05:07:48;;;;;;;7.45;5.00;;;22.50;60.30;;;;;;5042873;28;20072;-53
2023/06/18 05:10:14;;;;;;;5.72;5.07;;;22.50;60.40;;;;;;5042933;28;20027;-53
2023/06/18 05:12:39;;;;;;;7.18;4.97;;;22.50;60.40;;;;;;5042583;28;20037;-53
2023/06/18 05:15:06;;;;;;;7.28;4.80;;;22.50;60.50;;;;;;5044220;28;20043;-53
2023/06/18 05:17:33;;;;;;;6.10;4.88;;;22.50;60.40;;;;;;5042852;28;20053;-53
2023/06/18 05:20:00;;;;;;;6.45;4.90;;;22.50;60.50;;;;;;5043057;28;20025;-53
2023/06/18 05:22:26;;;;;;;5.68;5.18;;;22.50;60.60;;;;;;5044288;28;20064;-53
2023/06/18 05:24:52;;;;;;;5.53;5.03;;;22.40;60.50;;;;;;5044238;28;20049;-53
2023/06/18 05:27:18;;;;;;;5.63;5.00;;;22.40;60.50;;;;;;5042940;28;20028;-53
2023/06/18 05:29:43;;;;;;;7.85;5.03;;;22.50;60.60;;;;;;5042674;28;20029;-53
2023/06/18 05:32:09;;;;;;;7.95;5.35;;;22.50;60.60;;;;;;5044077;28;20032;-53
2023/06/18 05:34:35;;;;;;;7.15;4.78;;;22.50;60.60;;;;;;5044311;28;20085;-53
2023/06/18 05:37:01;;;;;;;5.90;5.22;;;22.50;60.60;;;;;;5042829;28;20026;-53
2023/06/18 05:39:26;;;;;;;5.88;4.95;;;22.40;60.60;;;;;;5042640;28;20030;-53
2023/06/18 05:41:52;;;;;;;7.63;5.35;;;22.40;60.60;;;;;;5045451;28;20075;-53
2023/06/18 05:44:17;;;;;;;5.68;5.07;;;22.40;60.60;;;;;;5046136;28;20025;-53
2023/06/18 05:46:43;;;;;;;6.43;4.88;;;22.40;60.70;;;;;;5045661;28;20040;-53
2023/06/18 05:49:09;;;;;;;7.97;5.13;;;22.40;60.60;;;;;;5047132;28;20029;-53
2023/06/18 05:51:35;;;;;;;7.93;5.30;;;22.40;60.70;;;;;;5047578;28;20087;-53
2023/06/18 05:54:01;;;;;;;6.03;5.43;;;22.40;60.70;;;;;;5046095;28;20030;-53
2023/06/18 05:56:26;;;;;;;5.22;4.72;;;22.40;60.80;;;;;;5047534;28;20091;-53
2023/06/18 05:58:53;;;;;;;7.55;5.60;;;22.40;60.70;;;;;;5047636;28;20045;-53
2023/06/18 06:01:18;;;;;;;8.60;5.32;;;22.40;60.70;;;;;;5047389;28;20025;-53
2023/06/18 06:03:44;;;;;;;6.80;5.35;;;22.30;61.50;;;;;;5046131;28;20030;-53
2023/06/18 06:06:09;;;;;;;5.55;4.93;;;22.40;60.90;;;;;;5046007;28;20029;-53
2023/06/18 06:08:35;;;;;;;5.40;4.90;;;22.30;61.10;;;;;;5046012;28;20057;-53
2023/06/18 06:11:01;;;;;;;5.50;5.00;;;22.40;60.90;;;;;;5047327;28;20033;-53
2023/06/18 06:13:26;;;;;;;7.05;4.80;;;22.40;60.80;;;;;;5046891;28;20029;-54
2023/06/18 06:15:52;;;;;;;11.20;5.13;;;22.40;60.90;;;;;;5045977;28;20060;-53
2023/06/18 06:18:17;;;;;;;7.45;4.97;;;22.30;61.00;;;;;;5047188;28;20025;-53
2023/06/18 06:20:43;;;;;;;5.53;5.00;;;22.30;61.00;;;;;;5047296;28;20061;-53
2023/06/18 06:23:08;;;;;;;6.45;5.03;;;22.30;60.90;;;;;;5028972;28;20045;-53
2023/06/18 06:25:35;;;;;;;6.47;5.40;;;22.30;60.90;;;;;;5046294;28;20029;-53
2023/06/18 06:28:00;;;;;;;7.65;5.65;;;22.40;60.90;;;;;;5048012;28;20021;-53
2023/06/18 06:30:26;;;;;;;9.50;5.30;;;22.40;60.90;;;;;;5047962;28;20080;-53
2023/06/18 06:32:51;;;;;;;5.85;5.32;;;22.40;60.90;;;;;;5046974;28;20115;-52
2023/06/18 06:35:17;;;;;;;5.38;4.88;;;22.40;60.90;;;;;;5046804;28;20030;-53
2023/06/18 06:37:43;;;;;;;7.28;5.28;;;22.40;60.90;;;;;;5047137;28;20033;-52
2023/06/18 06:40:09;;;;;;;8.00;5.05;;;22.40;60.90;;;;;;5046063;28;20089;-52
2023/06/18 06:42:35;;;;;;;6.07;5.25;;;22.40;61.00;;;;;;5046334;28;20025;-53
2023/06/18 06:45:01;;;;;;;5.60;5.00;;;22.40;61.00;;;;;;5047689;28;20026;-53
2023/06/18 06:47:27;;;;;;;6.60;5.40;;;22.40;61.00;;;;;;5045761;28;20041;-53
2023/06/18 06:49:52;;;;;;;7.40;4.80;;;22.40;61.00;;;;;;5045851;28;20036;-53
2023/06/18 06:52:18;;;;;;;6.45;5.53;;;22.40;61.20;;;;;;5045668;28;20085;-53
2023/06/18 06:54:43;;;;;;;7.22;5.05;;;22.40;61.10;;;;;;5046599;28;20037;-53
2023/06/18 06:57:09;;;;;;;5.70;5.13;;;22.40;61.00;;;;;;5045360;28;20022;-53
2023/06/18 06:59:34;;;;;;;5.57;5.00;;;22.40;60.80;;;;;;5045228;28;20439;-53
2023/06/18 07:02:00;;;;;;;5.78;5.00;;;22.40;60.90;;;;;;5044672;28;20362;-53
2023/06/18 07:04:26;;;;;;;6.35;5.65;;;22.40;61.10;;;;;;5046221;28;20551;-52
2023/06/18 07:06:52;;;;;;;5.45;4.88;;;22.40;61.40;;;;;;5045583;28;20105;-53
2023/06/18 07:09:18;;;;;;;6.80;5.13;;;22.40;62.10;;;;;;5045013;28;20033;-53
2023/06/18 07:11:43;;;;;;;5.60;4.72;;;22.40;61.40;;;;;;5046453;28;20033;-53
2023/06/18 07:14:09;;;;;;;6.00;5.20;;;22.40;61.50;;;;;;5045887;28;20029;-53
2023/06/18 07:16:35;;;;;;;5.63;5.03;;;22.40;61.40;;;;;;5044758;28;20026;-53
2023/06/18 07:19:01;;;;;;;7.60;5.10;;;22.50;61.30;;;;;;5044710;28;20104;-53
2023/06/18 07:21:27;;;;;;;5.85;5.30;;;22.50;61.10;;;;;;5044617;28;20030;-53
2023/06/18 07:23:52;;;;;;;6.03;5.10;;;22.50;60.90;;;;;;5045973;28;20177;-53
2023/06/18 07:26:18;;;;;;;7.97;5.10;;;22.50;60.90;;;;;;5044484;28;20149;-53
2023/06/18 07:28:43;;;;;;;5.75;5.15;;;22.50;60.90;;;;;;5044415;28;20043;-53
2023/06/18 07:31:09;;;;;;;6.28;5.22;;;22.50;61.00;;;;;;5044214;28;20119;-53
2023/06/18 07:33:34;;;;;;;6.32;4.95;;;22.50;61.10;;;;;;5044411;28;20048;-55
2023/06/18 07:36:00;;;;;;;6.72;4.85;;;22.50;61.20;;;;;;5045844;28;20021;-56
2023/06/18 07:38:25;;;;;;;5.85;5.20;;;22.50;61.30;;;;;;5043980;28;20022;-56
2023/06/18 07:40:51;;;;;;;6.82;5.22;;;22.50;61.20;;;;;;5043897;28;20089;-55
2023/06/18 07:43:17;;;;;;;5.25;4.75;;;22.50;61.20;;;;;;5045059;28;20060;-56
2023/06/18 07:45:42;;;;;;;5.45;4.95;;;22.50;61.20;;;;;;5044521;28;20026;-56
2023/06/18 07:48:08;;;;;;;5.20;4.70;;;22.50;61.30;;;;;;5060360;28;20032;-56
2023/06/18 07:50:34;;;;;;;5.57;4.97;;;22.50;61.20;;;;;;5044011;28;20047;-56
2023/06/18 07:53:00;;;;;;;6.35;5.05;;;22.50;61.30;;;;;;5044058;28;20025;-56
2023/06/18 07:55:25;;;;;;;5.78;5.18;;;22.50;61.20;;;;;;5043863;28;20086;-56
2023/06/18 07:57:51;;;;;;;9.10;5.35;;;22.60;61.30;;;;;;5043960;28;20075;-56
2023/06/18 08:00:16;;;;;;;5.72;5.20;;;22.60;61.50;;;;;;5043897;28;20457;-56
2023/06/18 08:02:42;;;;;;;6.03;4.80;;;22.60;61.40;;;;;;5043706;28;20087;-56
2023/06/18 08:05:08;;;;;;;6.85;4.75;;;22.60;61.30;;;;;;5045067;28;20044;-56
2023/06/18 08:07:34;;;;;;;5.93;5.10;;;22.60;61.20;;;;;;5043606;28;20572;-56
2023/06/18 08:09:59;;;;;;;6.40;4.93;;;22.60;61.30;;;;;;5044709;28;20036;-55
2023/06/18 08:12:25;;;;;;;6.20;5.10;;;22.60;61.40;;;;;;5043586;28;20053;-56
2023/06/18 08:14:51;;;;;;;7.50;5.15;;;22.70;61.40;;;;;;5043169;28;20470;-55
2023/06/18 08:17:17;;;;;;;8.52;4.90;;;22.70;61.80;;;;;;5044673;28;20033;-55
2023/06/18 08:19:47;;;;;;;8.30;5.30;;;22.70;61.90;;;;;;5043991;28;20032;-56
2023/06/18 08:22:14;;;;;;;13.27;5.40;;;22.70;62.10;;;;;;5058489;28;20055;-56
2023/06/18 08:24:39;;;;;;;15.13;5.80;;;22.70;62.70;;;;;;5038860;28;20040;-56
2023/06/18 08:27:05;;;;;;;19.45;6.45;;;22.70;62.80;;;;;;5042348;28;20030;-56
2023/06/18 08:29:31;;;;;;;16.83;5.65;;;22.70;63.10;;;;;;5044603;28;20044;-56
2023/06/18 08:31:59;;;;;;;14.88;5.68;;;22.80;63.10;;;;;;5058680;28;20032;-55
2023/06/18 08:34:25;;;;;;;22.40;5.90;;;22.80;62.90;;;;;;5059978;28;20108;-56
2023/06/18 08:36:51;;;;;;;22.33;6.35;;;22.90;62.40;;;;;;5044189;28;20026;-55
2023/06/18 08:39:17;;;;;;;39.63;7.97;;;22.90;62.80;;;;;;5043640;28;20058;-56
2023/06/18 08:41:45;;;;;;;60.00;12.02;;;22.90;63.10;;;;;;5063054;28;20029;-56
2023/06/18 08:44:10;;;;;;;109.05;14.98;;;22.90;63.30;;;;;;5060227;28;20370;-56
2023/06/18 08:46:36;;;;;;;83.63;13.50;;;22.90;63.40;;;;;;5042172;28;20026;-54
2023/06/18 08:49:02;;;;;;;80.13;12.48;;;23.00;63.90;;;;;;5042425;28;20048;-56
2023/06/18 08:51:27;;;;;;;94.35;14.20;;;23.00;63.50;;;;;;5043957;28;20442;-56
2023/06/18 08:54:14;;;;;;;89.65;13.05;;;23.10;63.80;;;;;;5042478;28;20070;-56
2023/06/18 08:56:43;;;;;;;82.55;13.63;;;23.10;63.90;;;;;;5042619;28;20041;-56
2023/06/18 08:59:10;;;;;;;68.50;11.30;;;23.10;63.50;;;;;;5042461;28;20048;-56
2023/06/18 09:01:36;;;;;;;68.80;10.93;;;23.20;63.90;;;;;;5042684;28;20098;-55
2023/06/18 09:04:02;;;;;;;77.00;11.90;;;23.10;63.80;;;;;;5042036;28;20057;-56
2023/06/18 09:06:28;;;;;;;59.47;11.73;;;23.20;63.50;;;;;;5024897;28;20025;-56
2023/06/18 09:08:53;;;;;;;60.22;11.30;;;23.20;63.30;;;;;;5042130;28;20030;-56
2023/06/18 09:11:19;;;;;;;61.03;11.93;;;23.30;63.40;;;;;;5042231;28;20041;-56
2023/06/18 09:13:45;;;;;;;91.35;13.35;;;23.30;63.40;;;;;;5039649;28;20048;-56
2023/06/18 09:16:11;;;;;;;108.82;15.50;;;23.40;63.30;;;;;;5043450;28;20074;-56
2023/06/18 09:18:36;;;;;;;82.32;13.10;;;23.40;63.20;;;;;;5052700;28;20022;-56
2023/06/18 09:21:05;;;;;;;78.85;13.70;;;23.50;62.90;;;;;;5047860;28;20033;-56
2023/06/18 09:23:31;;;;;;;86.55;13.25;;;23.50;62.90;;;;;;5044613;28;20060;-56
2023/06/18 09:25:56;;;;;;;107.05;15.18;;;23.50;63.10;;;;;;5047077;28;20094;-55
2023/06/18 09:28:23;;;;;;;93.07;14.23;;;23.60;62.80;;;;;;5047847;28;20030;-56
2023/06/18 09:30:53;;;;;;;63.65;12.35;;;23.60;62.70;;;;;;5066193;28;20338;-56
2023/06/18 09:33:35;;;;;;;117.38;14.55;;;23.70;62.70;;;;;;5054687;28;20128;-56
2023/06/18 09:36:09;;;;;;;109.60;15.15;;;23.70;62.80;;;;;;5055348;28;20524;-56
2023/06/18 09:38:42;;;;;;;85.70;15.37;;;23.70;62.70;;;;;;5046401;28;20025;-56
2023/06/18 09:41:16;;;;;;;115.15;15.55;;;23.80;62.70;;;;;;5045614;28;20030;-56
2023/06/18 09:43:43;;;;;;;106.40;15.25;;;23.80;62.60;;;;;;5045972;28;20120;-56
2023/06/18 09:46:08;;;;;;;105.50;15.23;;;23.90;62.20;;;;;;5045403;28;20033;-56
2023/06/18 09:48:40;;;;;;;110.68;16.95;;;23.90;62.00;;;;;;5045739;28;20036;-56
2023/06/18 09:51:05;;;;;;;72.47;13.38;;;24.00;62.10;;;;;;5044818;28;20037;-56
2023/06/18 09:53:32;;;;;;;88.57;15.05;;;24.10;61.60;;;;;;5045177;28;20047;-56
2023/06/18 09:56:10;;;;;;;101.75;15.85;;;24.10;61.70;;;;;;5050367;28;20394;-56
2023/06/18 09:58:43;;;;;;;97.85;15.43;;;24.10;61.30;;;;;;5059482;28;20017;-56
2023/06/18 10:01:09;;;;;;;96.00;14.10;;;24.20;61.40;;;;;;5026572;28;20044;-56
2023/06/18 10:03:35;;;;;;;110.00;17.55;;;24.30;61.00;;;;;;5044197;28;20053;-56
2023/06/18 10:06:11;;;;;;;88.22;15.52;;;24.30;61.20;;;;;;5029303;28;20021;-56
2023/06/18 10:08:42;;;;;;;128.50;17.35;;;24.30;61.20;;;;;;5035849;28;20052;-56
2023/06/18 10:11:08;;;;;;;119.60;17.33;;;24.40;61.00;;;;;;5052410;28;20034;-56
2023/06/18 10:13:35;;;;;;;97.07;15.80;;;24.40;60.90;;;;;;5055819;28;20476;-56
2023/06/18 10:16:01;;;;;;;126.32;16.40;;;24.50;60.60;;;;;;5053758;28;20128;-55
2023/06/18 10:18:27;;;;;;;133.45;19.08;;;24.60;60.50;;;;;;5051574;28;20025;-56
2023/06/18 10:20:53;;;;;;;125.60;17.40;;;24.60;60.40;;;;;;5044704;28;20053;-53
2023/06/18 10:23:19;;;;;;;124.90;17.52;;;24.60;60.20;;;;;;5011552;28;20032;-53
2023/06/18 10:25:45;;;;;;;138.98;19.17;;;24.70;60.10;;;;;;5042058;28;20034;-53
2023/06/18 10:28:10;;;;;;;156.60;20.65;;;24.80;60.10;;;;;;5042456;28;20353;-53
2023/06/18 10:30:36;;;;;;;153.63;20.33;;;24.80;60.30;;;;;;5044575;28;20033;-54
2023/06/18 10:33:02;;;;;;;98.30;15.63;;;24.80;60.50;;;;;;5049586;28;20056;-53
2023/06/18 10:35:27;;;;;;;144.05;21.48;;;24.90;59.90;;;;;;5050167;28;20029;-53
2023/06/18 10:37:53;;;;;;;108.00;19.25;;;25.00;60.20;;;;;;5060747;28;20025;-53
2023/06/18 10:40:18;;;;;;;87.72;15.32;;;25.10;60.00;;;;;;5044848;28;20032;-53
2023/06/18 10:42:47;;;;;;;112.97;18.13;;;25.10;59.70;;;;;;5043963;28;20032;-53
2023/06/18 10:45:14;;;;;;;137.93;19.40;;;25.20;59.60;;;;;;5026943;28;20091;-51
2023/06/18 10:47:40;;;;;;;115.85;19.38;;;25.30;59.60;;;;;;5056775;28;20073;-53
2023/06/18 10:50:06;;;;;;;122.38;19.20;;;25.40;59.40;;;;;;5049975;28;20044;-53
2023/06/18 10:52:32;;;;;;;110.78;17.80;;;25.40;59.10;;;;;;5045889;28;20117;-53
2023/06/18 10:55:12;;;;;;;95.20;16.85;;;25.50;59.10;;;;;;5050175;28;20032;-54
2023/06/18 10:57:50;;;;;;;93.13;16.70;;;25.60;59.10;;;;;;5046878;28;20091;-53
2023/06/18 11:00:21;;;;;;;250.27;33.05;;;25.70;59.00;;;;;;5044823;28;20037;-53
2023/06/18 11:02:49;;;;;;;151.95;21.35;;;25.80;58.90;;;;;;5048093;28;20037;-53
2023/06/18 11:05:34;;;;;;;160.90;22.90;;;25.90;58.80;;;;;;5044055;28;20061;-53
2023/06/18 11:08:01;;;;;;;226.23;26.92;;;26.00;58.50;;;;;;5048339;28;20081;-53
2023/06/18 11:10:42;;;;;;;194.27;24.77;;;26.00;58.20;;;;;;5045756;28;20043;-53
2023/06/18 11:13:09;;;;;;;153.18;24.10;;;26.10;58.60;;;;;;5047824;28;20021;-53
2023/06/18 11:15:58;;;;;;;171.18;22.30;;;26.20;58.10;;;;;;5045481;28;20065;-53
2023/06/18 11:18:26;;;;;;;172.13;22.30;;;26.50;58.00;;;;;;5043445;28;20500;-54
2023/06/18 11:20:53;;;;;;;203.90;26.95;;;26.30;57.70;;;;;;5026067;28;20129;-55
2023/06/18 11:23:18;;;;;;;169.50;21.50;;;26.40;57.80;;;;;;5024247;28;20064;-56
2023/06/18 11:25:45;;;;;;;172.00;22.80;;;26.50;57.60;;;;;;5025596;28;20343;-56
2023/06/18 11:28:13;;;;;;;154.63;20.48;;;26.50;57.60;;;;;;5036614;28;20112;-56
2023/06/18 11:30:39;;;;;;;177.65;23.75;;;26.60;57.40;;;;;;5042352;28;20030;-54
2023/06/18 11:33:05;;;;;;;141.10;20.20;;;26.80;57.40;;;;;;5043419;28;20072;-54
2023/06/18 11:35:30;;;;;;;140.82;21.02;;;26.80;56.90;;;;;;5053663;28;20029;-54
2023/06/18 11:37:56;;;;;;;138.80;21.42;;;27.00;57.10;;;;;;5057129;28;20025;-54
2023/06/18 11:40:21;;;;;;;127.07;19.70;;;27.10;56.80;;;;;;5027461;28;20032;-54
2023/06/18 11:42:48;;;;;;;149.35;21.27;;;27.10;56.30;;;;;;5053784;28;20449;-54
2023/06/18 11:45:15;;;;;;;161.32;21.63;;;27.20;56.30;;;;;;5048031;28;20056;-54
2023/06/18 11:47:45;;;;;;;117.28;16.80;;;27.40;56.30;;;;;;5052534;28;20028;-54
2023/06/18 11:50:11;;;;;;;146.38;22.33;;;27.30;55.70;;;;;;5044833;28;20041;-54
2023/06/18 11:52:36;;;;;;;146.00;22.23;;;27.40;55.90;;;;;;5052964;28;20048;-54
2023/06/18 11:55:03;;;;;;;120.30;17.35;;;27.40;55.80;;;;;;5058703;28;20332;-54
2023/06/18 11:57:29;;;;;;;135.20;18.73;;;27.50;55.40;;;;;;5049206;28;20016;-54
2023/06/18 11:59:55;;;;;;;122.72;19.70;;;27.60;55.10;;;;;;5056050;28;20032;-53
2023/06/18 12:02:26;;;;;;;103.90;16.17;;;27.60;55.00;;;;;;5052738;28;20040;-54
2023/06/18 12:04:51;;;;;;;125.65;19.27;;;27.80;54.60;;;;;;5046627;28;20053;-54
2023/06/18 12:07:24;;;;;;;112.63;16.73;;;27.80;54.80;;;;;;5042790;28;20535;-54
2023/06/18 12:09:51;;;;;;;126.35;18.10;;;27.90;54.70;;;;;;5027167;28;20060;-54
2023/06/18 12:12:28;;;;;;;198.98;21.65;;;28.00;54.40;;;;;;5042781;28;20064;-54
2023/06/18 12:15:04;;;;;;;232.23;26.05;;;28.10;54.50;;;;;;5042614;28;20413;-54
2023/06/18 12:17:38;;;;;;;96.65;14.57;;;28.10;54.40;;;;;;5044364;28;20040;-54
2023/06/18 12:20:10;;;;;;;106.28;13.00;;;28.20;53.90;;;;;;5043919;28;20043;-53
2023/06/18 12:22:36;;;;;;;89.75;14.57;;;28.30;53.60;;;;;;5043108;28;20098;-54
2023/06/18 12:25:02;;;;;;;102.28;17.50;;;28.40;53.90;;;;;;5042831;28;20042;-54
2023/06/18 12:27:28;;;;;;;156.30;21.73;;;28.40;54.00;;;;;;5042195;28;20036;-54
2023/06/18 12:30:01;;;;;;;156.20;23.05;;;28.50;53.50;;;;;;5042585;28;20037;-54
2023/06/18 12:32:26;;;;;;;142.30;19.98;;;28.60;53.50;;;;;;5043027;28;20030;-54
2023/06/18 12:34:52;;;;;;;125.03;16.50;;;28.60;53.40;;;;;;5043430;28;20108;-54
2023/06/18 12:37:18;;;;;;;103.07;16.25;;;28.70;53.10;;;;;;5042944;28;20108;-54